sensor_id;sensor_type;location;lat;lon;timestamp;P1;durP1;ratioP1;P2;durP2;ratioP2
43744;SDS011;29359;53.048;8.732;2023-12-04T00:00:27;25.33;;;13.73;;
43744;SDS011;29359;53.048;8.732;2023-12-04T00:02:29;23.88;;;13.27;;
43744;SDS011;29359;53.048;8.732;2023-12-04T00:04:31;27.25;;;13.75;;
43744;SDS011;29359;53.048;8.732;2023-12-04T00:06:33;25.27;;;12.65;;
43744;SDS011;29359;53.048;8.732;2023-12-04T00:08:35;23.67;;;12.73;;
43744;SDS011;29359;53.048;8.732;2023-12-04T00:10:37;22.73;;;13.20;;
43744;SDS011;29359;53.048;8.732;2023-12-04T00:12:39;22.70;;;13.23;;
43744;SDS011;29359;53.048;8.732;2023-12-04T00:14:41;23.88;;;13.25;;
43744;SDS011;29359;53.048;8.732;2023-12-04T00:16:42;23.58;;;13.75;;
43744;SDS011;29359;53.048;8.732;2023-12-04T00:18:44;23.15;;;13.13;;
43744;SDS011;29359;53.048;8.732;2023-12-04T00:20:46;23.95;;;13.38;;
43744;SDS011;29359;53.048;8.732;2023-12-04T00:22:48;21.73;;;12.65;;
43744;SDS011;29359;53.048;8.732;2023-12-04T00:24:49;23.17;;;12.88;;
43744;SDS011;29359;53.048;8.732;2023-12-04T00:26:51;24.85;;;13.60;;
43744;SDS011;29359;53.048;8.732;2023-12-04T00:28:53;23.77;;;12.82;;
43744;SDS011;29359;53.048;8.732;2023-12-04T00:30:55;22.80;;;13.32;;
43744;SDS011;29359;53.048;8.732;2023-12-04T00:32:57;25.70;;;12.68;;
43744;SDS011;29359;53.048;8.732;2023-12-04T00:34:58;23.80;;;13.15;;
43744;SDS011;29359;53.048;8.732;2023-12-04T00:37:00;21.55;;;12.55;;
43744;SDS011;29359;53.048;8.732;2023-12-04T00:39:02;21.70;;;12.32;;
43744;SDS011;29359;53.048;8.732;2023-12-04T00:41:05;24.02;;;13.80;;
43744;SDS011;29359;53.048;8.732;2023-12-04T00:43:07;24.27;;;12.90;;
43744;SDS011;29359;53.048;8.732;2023-12-04T00:45:09;21.42;;;12.38;;
43744;SDS011;29359;53.048;8.732;2023-12-04T00:47:10;25.30;;;12.60;;
43744;SDS011;29359;53.048;8.732;2023-12-04T00:49:12;23.88;;;13.88;;
43744;SDS011;29359;53.048;8.732;2023-12-04T00:51:14;26.83;;;13.68;;
43744;SDS011;29359;53.048;8.732;2023-12-04T00:53:16;26.70;;;13.82;;
43744;SDS011;29359;53.048;8.732;2023-12-04T00:55:18;25.05;;;12.48;;
43744;SDS011;29359;53.048;8.732;2023-12-04T00:57:20;22.65;;;12.85;;
43744;SDS011;29359;53.048;8.732;2023-12-04T00:59:22;23.15;;;12.95;;
43744;SDS011;29359;53.048;8.732;2023-12-04T01:01:24;24.75;;;13.32;;
43744;SDS011;29359;53.048;8.732;2023-12-04T01:03:26;20.33;;;12.43;;
43744;SDS011;29359;53.048;8.732;2023-12-04T01:05:28;24.42;;;13.82;;
43744;SDS011;29359;53.048;8.732;2023-12-04T01:07:29;26.60;;;13.65;;
43744;SDS011;29359;53.048;8.732;2023-12-04T01:09:31;22.23;;;13.07;;
43744;SDS011;29359;53.048;8.732;2023-12-04T01:11:36;24.20;;;14.20;;
43744;SDS011;29359;53.048;8.732;2023-12-04T01:13:38;21.27;;;12.40;;
43744;SDS011;29359;53.048;8.732;2023-12-04T01:15:40;22.23;;;13.98;;
43744;SDS011;29359;53.048;8.732;2023-12-04T01:17:41;23.90;;;13.75;;
43744;SDS011;29359;53.048;8.732;2023-12-04T01:19:43;23.13;;;13.13;;
43744;SDS011;29359;53.048;8.732;2023-12-04T01:21:45;23.58;;;13.00;;
43744;SDS011;29359;53.048;8.732;2023-12-04T01:23:47;24.30;;;13.63;;
43744;SDS011;29359;53.048;8.732;2023-12-04T01:25:49;23.48;;;14.18;;
43744;SDS011;29359;53.048;8.732;2023-12-04T01:27:50;22.90;;;12.75;;
43744;SDS011;29359;53.048;8.732;2023-12-04T01:29:52;26.38;;;13.13;;
43744;SDS011;29359;53.048;8.732;2023-12-04T01:31:54;23.20;;;12.80;;
43744;SDS011;29359;53.048;8.732;2023-12-04T01:33:55;24.17;;;13.20;;
43744;SDS011;29359;53.048;8.732;2023-12-04T01:35:57;21.90;;;12.93;;
43744;SDS011;29359;53.048;8.732;2023-12-04T01:37:59;20.88;;;12.00;;
43744;SDS011;29359;53.048;8.732;2023-12-04T01:40:01;21.75;;;12.98;;
43744;SDS011;29359;53.048;8.732;2023-12-04T01:42:03;25.40;;;13.25;;
43744;SDS011;29359;53.048;8.732;2023-12-04T01:44:05;25.17;;;13.27;;
43744;SDS011;29359;53.048;8.732;2023-12-04T01:46:07;22.83;;;12.82;;
43744;SDS011;29359;53.048;8.732;2023-12-04T01:48:09;28.05;;;14.48;;
43744;SDS011;29359;53.048;8.732;2023-12-04T01:50:12;21.70;;;12.82;;
43744;SDS011;29359;53.048;8.732;2023-12-04T01:52:16;24.05;;;13.68;;
43744;SDS011;29359;53.048;8.732;2023-12-04T01:54:18;23.00;;;12.60;;
43744;SDS011;29359;53.048;8.732;2023-12-04T01:56:20;23.00;;;12.25;;
43744;SDS011;29359;53.048;8.732;2023-12-04T01:58:22;24.40;;;12.88;;
43744;SDS011;29359;53.048;8.732;2023-12-04T02:00:25;20.08;;;12.30;;
43744;SDS011;29359;53.048;8.732;2023-12-04T02:02:27;24.50;;;13.30;;
43744;SDS011;29359;53.048;8.732;2023-12-04T02:04:30;23.98;;;12.00;;
43744;SDS011;29359;53.048;8.732;2023-12-04T02:06:32;20.15;;;11.52;;
43744;SDS011;29359;53.048;8.732;2023-12-04T02:08:34;25.05;;;12.85;;
43744;SDS011;29359;53.048;8.732;2023-12-04T02:10:37;22.20;;;12.10;;
43744;SDS011;29359;53.048;8.732;2023-12-04T02:12:40;22.70;;;12.38;;
43744;SDS011;29359;53.048;8.732;2023-12-04T02:14:42;21.52;;;12.20;;
43744;SDS011;29359;53.048;8.732;2023-12-04T02:16:44;21.05;;;12.25;;
43744;SDS011;29359;53.048;8.732;2023-12-04T02:18:47;23.65;;;12.73;;
43744;SDS011;29359;53.048;8.732;2023-12-04T02:20:49;21.50;;;11.85;;
43744;SDS011;29359;53.048;8.732;2023-12-04T02:22:51;22.92;;;12.45;;
43744;SDS011;29359;53.048;8.732;2023-12-04T02:24:53;21.60;;;11.80;;
43744;SDS011;29359;53.048;8.732;2023-12-04T02:27:04;23.33;;;12.38;;
43744;SDS011;29359;53.048;8.732;2023-12-04T02:29:13;21.42;;;12.10;;
43744;SDS011;29359;53.048;8.732;2023-12-04T02:31:18;25.75;;;11.80;;
43744;SDS011;29359;53.048;8.732;2023-12-04T02:33:23;24.63;;;12.35;;
43744;SDS011;29359;53.048;8.732;2023-12-04T02:35:27;21.85;;;12.02;;
43744;SDS011;29359;53.048;8.732;2023-12-04T02:37:33;21.95;;;11.85;;
43744;SDS011;29359;53.048;8.732;2023-12-04T02:39:36;19.67;;;11.40;;
43744;SDS011;29359;53.048;8.732;2023-12-04T02:41:38;21.52;;;11.45;;
43744;SDS011;29359;53.048;8.732;2023-12-04T02:43:40;19.67;;;11.05;;
43744;SDS011;29359;53.048;8.732;2023-12-04T02:45:42;20.10;;;11.85;;
43744;SDS011;29359;53.048;8.732;2023-12-04T02:47:43;21.38;;;11.60;;
43744;SDS011;29359;53.048;8.732;2023-12-04T02:49:45;16.55;;;10.57;;
43744;SDS011;29359;53.048;8.732;2023-12-04T02:51:53;22.27;;;12.38;;
43744;SDS011;29359;53.048;8.732;2023-12-04T02:53:55;17.38;;;11.30;;
43744;SDS011;29359;53.048;8.732;2023-12-04T02:55:56;20.85;;;11.30;;
43744;SDS011;29359;53.048;8.732;2023-12-04T02:57:58;21.17;;;12.10;;
43744;SDS011;29359;53.048;8.732;2023-12-04T03:00:00;19.42;;;10.73;;
43744;SDS011;29359;53.048;8.732;2023-12-04T03:02:02;20.35;;;11.43;;
43744;SDS011;29359;53.048;8.732;2023-12-04T03:04:04;18.45;;;10.82;;
43744;SDS011;29359;53.048;8.732;2023-12-04T03:06:06;20.15;;;11.55;;
43744;SDS011;29359;53.048;8.732;2023-12-04T03:08:08;20.23;;;11.43;;
43744;SDS011;29359;53.048;8.732;2023-12-04T03:10:09;20.52;;;11.60;;
43744;SDS011;29359;53.048;8.732;2023-12-04T03:12:11;20.90;;;11.70;;
43744;SDS011;29359;53.048;8.732;2023-12-04T03:14:13;19.67;;;11.90;;
43744;SDS011;29359;53.048;8.732;2023-12-04T03:16:16;19.02;;;12.00;;
43744;SDS011;29359;53.048;8.732;2023-12-04T03:18:18;22.95;;;12.18;;
43744;SDS011;29359;53.048;8.732;2023-12-04T03:20:20;18.67;;;11.48;;
43744;SDS011;29359;53.048;8.732;2023-12-04T03:22:22;20.38;;;11.30;;
43744;SDS011;29359;53.048;8.732;2023-12-04T03:24:24;20.25;;;11.65;;
43744;SDS011;29359;53.048;8.732;2023-12-04T03:26:26;21.63;;;12.43;;
43744;SDS011;29359;53.048;8.732;2023-12-04T03:28:27;20.77;;;11.32;;
43744;SDS011;29359;53.048;8.732;2023-12-04T03:30:29;20.92;;;11.45;;
43744;SDS011;29359;53.048;8.732;2023-12-04T03:32:31;19.23;;;11.10;;
43744;SDS011;29359;53.048;8.732;2023-12-04T03:34:33;17.85;;;10.57;;
43744;SDS011;29359;53.048;8.732;2023-12-04T03:36:35;20.45;;;11.55;;
43744;SDS011;29359;53.048;8.732;2023-12-04T03:38:37;20.30;;;11.20;;
43744;SDS011;29359;53.048;8.732;2023-12-04T03:40:38;19.30;;;11.23;;
43744;SDS011;29359;53.048;8.732;2023-12-04T03:42:40;17.63;;;10.25;;
43744;SDS011;29359;53.048;8.732;2023-12-04T03:44:42;18.85;;;11.43;;
43744;SDS011;29359;53.048;8.732;2023-12-04T03:46:44;23.77;;;12.02;;
43744;SDS011;29359;53.048;8.732;2023-12-04T03:48:46;23.10;;;11.20;;
43744;SDS011;29359;53.048;8.732;2023-12-04T03:50:47;21.13;;;11.80;;
43744;SDS011;29359;53.048;8.732;2023-12-04T03:52:49;21.77;;;11.15;;
43744;SDS011;29359;53.048;8.732;2023-12-04T03:54:51;21.92;;;12.15;;
43744;SDS011;29359;53.048;8.732;2023-12-04T03:56:53;19.85;;;12.07;;
43744;SDS011;29359;53.048;8.732;2023-12-04T03:58:54;19.38;;;11.60;;
43744;SDS011;29359;53.048;8.732;2023-12-04T04:00:56;17.65;;;11.25;;
43744;SDS011;29359;53.048;8.732;2023-12-04T04:02:58;18.42;;;10.77;;
43744;SDS011;29359;53.048;8.732;2023-12-04T04:05:00;16.67;;;10.77;;
43744;SDS011;29359;53.048;8.732;2023-12-04T04:07:02;19.70;;;11.45;;
43744;SDS011;29359;53.048;8.732;2023-12-04T04:09:04;18.38;;;10.85;;
43744;SDS011;29359;53.048;8.732;2023-12-04T04:11:06;17.80;;;10.50;;
43744;SDS011;29359;53.048;8.732;2023-12-04T04:13:08;23.63;;;11.07;;
43744;SDS011;29359;53.048;8.732;2023-12-04T04:15:10;18.45;;;11.35;;
43744;SDS011;29359;53.048;8.732;2023-12-04T04:17:12;17.77;;;10.48;;
43744;SDS011;29359;53.048;8.732;2023-12-04T04:19:14;18.00;;;10.73;;
43744;SDS011;29359;53.048;8.732;2023-12-04T04:21:15;18.98;;;10.27;;
43744;SDS011;29359;53.048;8.732;2023-12-04T04:23:17;19.88;;;11.27;;
43744;SDS011;29359;53.048;8.732;2023-12-04T04:25:19;21.05;;;11.07;;
43744;SDS011;29359;53.048;8.732;2023-12-04T04:27:23;18.77;;;10.93;;
43744;SDS011;29359;53.048;8.732;2023-12-04T04:29:25;21.58;;;10.45;;
43744;SDS011;29359;53.048;8.732;2023-12-04T04:31:27;19.70;;;11.30;;
43744;SDS011;29359;53.048;8.732;2023-12-04T04:33:28;18.45;;;10.82;;
43744;SDS011;29359;53.048;8.732;2023-12-04T04:35:30;18.77;;;10.32;;
43744;SDS011;29359;53.048;8.732;2023-12-04T04:37:32;17.13;;;10.55;;
43744;SDS011;29359;53.048;8.732;2023-12-04T04:39:34;16.75;;;10.05;;
43744;SDS011;29359;53.048;8.732;2023-12-04T04:41:36;17.15;;;10.32;;
43744;SDS011;29359;53.048;8.732;2023-12-04T04:43:37;15.88;;;10.02;;
43744;SDS011;29359;53.048;8.732;2023-12-04T04:45:39;16.50;;;10.88;;
43744;SDS011;29359;53.048;8.732;2023-12-04T04:47:41;19.20;;;10.88;;
43744;SDS011;29359;53.048;8.732;2023-12-04T04:49:43;16.50;;;10.35;;
43744;SDS011;29359;53.048;8.732;2023-12-04T04:51:45;18.05;;;10.73;;
43744;SDS011;29359;53.048;8.732;2023-12-04T04:53:47;20.98;;;10.95;;
43744;SDS011;29359;53.048;8.732;2023-12-04T04:55:49;16.80;;;10.35;;
43744;SDS011;29359;53.048;8.732;2023-12-04T04:57:51;18.45;;;10.30;;
43744;SDS011;29359;53.048;8.732;2023-12-04T04:59:53;18.70;;;11.07;;
43744;SDS011;29359;53.048;8.732;2023-12-04T05:01:55;20.80;;;11.43;;
43744;SDS011;29359;53.048;8.732;2023-12-04T05:03:57;16.42;;;9.93;;
43744;SDS011;29359;53.048;8.732;2023-12-04T05:05:59;19.30;;;10.98;;
43744;SDS011;29359;53.048;8.732;2023-12-04T05:08:01;20.98;;;11.25;;
43744;SDS011;29359;53.048;8.732;2023-12-04T05:10:03;19.30;;;10.60;;
43744;SDS011;29359;53.048;8.732;2023-12-04T05:12:09;17.33;;;10.48;;
43744;SDS011;29359;53.048;8.732;2023-12-04T05:14:10;16.02;;;10.10;;
43744;SDS011;29359;53.048;8.732;2023-12-04T05:16:12;19.58;;;10.45;;
43744;SDS011;29359;53.048;8.732;2023-12-04T05:18:14;15.68;;;9.60;;
43744;SDS011;29359;53.048;8.732;2023-12-04T05:20:16;17.83;;;10.32;;
43744;SDS011;29359;53.048;8.732;2023-12-04T05:22:18;15.57;;;9.75;;
43744;SDS011;29359;53.048;8.732;2023-12-04T05:24:20;17.52;;;10.07;;
43744;SDS011;29359;53.048;8.732;2023-12-04T05:26:21;19.23;;;10.77;;
43744;SDS011;29359;53.048;8.732;2023-12-04T05:28:23;16.90;;;10.00;;
43744;SDS011;29359;53.048;8.732;2023-12-04T05:30:25;17.23;;;10.20;;
43744;SDS011;29359;53.048;8.732;2023-12-04T05:32:27;17.13;;;9.70;;
43744;SDS011;29359;53.048;8.732;2023-12-04T05:34:29;17.40;;;10.77;;
43744;SDS011;29359;53.048;8.732;2023-12-04T05:36:31;18.85;;;10.48;;
43744;SDS011;29359;53.048;8.732;2023-12-04T05:38:32;20.00;;;10.07;;
43744;SDS011;29359;53.048;8.732;2023-12-04T05:40:35;18.75;;;10.10;;
43744;SDS011;29359;53.048;8.732;2023-12-04T05:42:37;17.42;;;10.10;;
43744;SDS011;29359;53.048;8.732;2023-12-04T05:44:39;18.25;;;10.40;;
43744;SDS011;29359;53.048;8.732;2023-12-04T05:46:40;18.27;;;10.88;;
43744;SDS011;29359;53.048;8.732;2023-12-04T05:48:42;15.65;;;9.85;;
43744;SDS011;29359;53.048;8.732;2023-12-04T05:50:44;17.77;;;10.50;;
43744;SDS011;29359;53.048;8.732;2023-12-04T05:52:46;14.60;;;9.35;;
43744;SDS011;29359;53.048;8.732;2023-12-04T05:54:48;21.42;;;10.65;;
43744;SDS011;29359;53.048;8.732;2023-12-04T05:56:50;13.57;;;9.35;;
43744;SDS011;29359;53.048;8.732;2023-12-04T05:58:52;20.33;;;11.07;;
43744;SDS011;29359;53.048;8.732;2023-12-04T06:00:54;19.88;;;9.88;;
43744;SDS011;29359;53.048;8.732;2023-12-04T06:02:56;16.55;;;10.40;;
43744;SDS011;29359;53.048;8.732;2023-12-04T06:04:58;19.40;;;10.68;;
43744;SDS011;29359;53.048;8.732;2023-12-04T06:06:59;16.80;;;9.95;;
43744;SDS011;29359;53.048;8.732;2023-12-04T06:09:01;20.13;;;10.85;;
43744;SDS011;29359;53.048;8.732;2023-12-04T06:11:03;17.52;;;10.80;;
43744;SDS011;29359;53.048;8.732;2023-12-04T06:13:05;17.70;;;10.77;;
43744;SDS011;29359;53.048;8.732;2023-12-04T06:15:07;18.05;;;10.73;;
43744;SDS011;29359;53.048;8.732;2023-12-04T06:17:09;19.00;;;10.38;;
43744;SDS011;29359;53.048;8.732;2023-12-04T06:19:11;14.00;;;9.25;;
43744;SDS011;29359;53.048;8.732;2023-12-04T06:21:13;18.05;;;10.77;;
43744;SDS011;29359;53.048;8.732;2023-12-04T06:23:15;19.27;;;9.85;;
43744;SDS011;29359;53.048;8.732;2023-12-04T06:25:17;15.45;;;10.32;;
43744;SDS011;29359;53.048;8.732;2023-12-04T06:27:20;17.45;;;9.90;;
43744;SDS011;29359;53.048;8.732;2023-12-04T06:29:22;16.30;;;10.23;;
43744;SDS011;29359;53.048;8.732;2023-12-04T06:31:24;15.63;;;9.93;;
43744;SDS011;29359;53.048;8.732;2023-12-04T06:33:26;17.63;;;10.30;;
43744;SDS011;29359;53.048;8.732;2023-12-04T06:35:28;15.98;;;9.60;;
43744;SDS011;29359;53.048;8.732;2023-12-04T06:37:30;17.17;;;10.55;;
43744;SDS011;29359;53.048;8.732;2023-12-04T06:39:32;19.45;;;11.00;;
43744;SDS011;29359;53.048;8.732;2023-12-04T06:41:35;14.88;;;9.70;;
43744;SDS011;29359;53.048;8.732;2023-12-04T06:43:37;15.65;;;10.20;;
43744;SDS011;29359;53.048;8.732;2023-12-04T06:45:39;16.92;;;10.48;;
43744;SDS011;29359;53.048;8.732;2023-12-04T06:47:41;17.00;;;9.93;;
43744;SDS011;29359;53.048;8.732;2023-12-04T06:49:45;18.00;;;10.32;;
43744;SDS011;29359;53.048;8.732;2023-12-04T06:51:47;16.80;;;10.20;;
43744;SDS011;29359;53.048;8.732;2023-12-04T06:53:49;17.48;;;10.48;;
43744;SDS011;29359;53.048;8.732;2023-12-04T06:55:50;16.67;;;10.60;;
43744;SDS011;29359;53.048;8.732;2023-12-04T06:57:52;17.33;;;10.98;;
43744;SDS011;29359;53.048;8.732;2023-12-04T06:59:54;15.43;;;10.15;;
43744;SDS011;29359;53.048;8.732;2023-12-04T07:01:56;17.52;;;11.02;;
43744;SDS011;29359;53.048;8.732;2023-12-04T07:03:57;19.85;;;10.25;;
43744;SDS011;29359;53.048;8.732;2023-12-04T07:05:59;17.95;;;9.30;;
43744;SDS011;29359;53.048;8.732;2023-12-04T07:08:01;14.32;;;10.18;;
43744;SDS011;29359;53.048;8.732;2023-12-04T07:10:04;15.43;;;9.82;;
43744;SDS011;29359;53.048;8.732;2023-12-04T07:12:06;15.27;;;9.57;;
43744;SDS011;29359;53.048;8.732;2023-12-04T07:14:09;17.05;;;9.93;;
43744;SDS011;29359;53.048;8.732;2023-12-04T07:16:11;17.15;;;9.63;;
43744;SDS011;29359;53.048;8.732;2023-12-04T07:18:12;14.88;;;9.43;;
43744;SDS011;29359;53.048;8.732;2023-12-04T07:20:14;16.92;;;9.75;;
43744;SDS011;29359;53.048;8.732;2023-12-04T07:22:16;15.85;;;9.70;;
43744;SDS011;29359;53.048;8.732;2023-12-04T07:24:18;16.35;;;9.75;;
43744;SDS011;29359;53.048;8.732;2023-12-04T07:26:20;14.15;;;9.32;;
43744;SDS011;29359;53.048;8.732;2023-12-04T07:28:22;18.25;;;8.63;;
43744;SDS011;29359;53.048;8.732;2023-12-04T07:30:24;14.45;;;9.07;;
43744;SDS011;29359;53.048;8.732;2023-12-04T07:32:26;19.67;;;10.20;;
43744;SDS011;29359;53.048;8.732;2023-12-04T07:34:28;14.45;;;9.70;;
43744;SDS011;29359;53.048;8.732;2023-12-04T07:36:30;20.77;;;9.80;;
43744;SDS011;29359;53.048;8.732;2023-12-04T07:38:32;18.27;;;10.05;;
43744;SDS011;29359;53.048;8.732;2023-12-04T07:40:33;16.80;;;10.13;;
43744;SDS011;29359;53.048;8.732;2023-12-04T07:42:35;16.10;;;9.50;;
43744;SDS011;29359;53.048;8.732;2023-12-04T07:44:38;17.23;;;9.95;;
43744;SDS011;29359;53.048;8.732;2023-12-04T07:46:39;18.08;;;9.95;;
43744;SDS011;29359;53.048;8.732;2023-12-04T07:48:41;18.70;;;10.32;;
43744;SDS011;29359;53.048;8.732;2023-12-04T07:50:45;15.45;;;9.98;;
43744;SDS011;29359;53.048;8.732;2023-12-04T07:52:47;16.63;;;9.75;;
43744;SDS011;29359;53.048;8.732;2023-12-04T07:54:49;15.48;;;10.10;;
43744;SDS011;29359;53.048;8.732;2023-12-04T07:56:50;15.30;;;10.10;;
43744;SDS011;29359;53.048;8.732;2023-12-04T07:58:52;16.55;;;9.88;;
43744;SDS011;29359;53.048;8.732;2023-12-04T08:00:54;18.55;;;9.73;;
43744;SDS011;29359;53.048;8.732;2023-12-04T08:02:56;17.73;;;9.75;;
43744;SDS011;29359;53.048;8.732;2023-12-04T08:04:58;17.02;;;10.18;;
43744;SDS011;29359;53.048;8.732;2023-12-04T08:06:59;17.65;;;9.95;;
43744;SDS011;29359;53.048;8.732;2023-12-04T08:09:01;15.32;;;10.10;;
43744;SDS011;29359;53.048;8.732;2023-12-04T08:11:04;18.85;;;10.52;;
43744;SDS011;29359;53.048;8.732;2023-12-04T08:13:05;21.35;;;10.55;;
43744;SDS011;29359;53.048;8.732;2023-12-04T08:15:08;17.55;;;10.45;;
43744;SDS011;29359;53.048;8.732;2023-12-04T08:17:10;15.02;;;9.90;;
43744;SDS011;29359;53.048;8.732;2023-12-04T08:19:12;17.63;;;10.60;;
43744;SDS011;29359;53.048;8.732;2023-12-04T08:21:13;16.52;;;10.55;;
43744;SDS011;29359;53.048;8.732;2023-12-04T08:23:15;20.27;;;11.18;;
43744;SDS011;29359;53.048;8.732;2023-12-04T08:25:17;18.45;;;10.13;;
43744;SDS011;29359;53.048;8.732;2023-12-04T08:27:19;17.23;;;9.85;;
43744;SDS011;29359;53.048;8.732;2023-12-04T08:29:21;17.55;;;10.52;;
43744;SDS011;29359;53.048;8.732;2023-12-04T08:31:23;16.38;;;9.52;;
43744;SDS011;29359;53.048;8.732;2023-12-04T08:33:24;14.63;;;9.25;;
43744;SDS011;29359;53.048;8.732;2023-12-04T08:35:26;17.55;;;9.75;;
43744;SDS011;29359;53.048;8.732;2023-12-04T08:37:28;18.00;;;10.00;;
43744;SDS011;29359;53.048;8.732;2023-12-04T08:39:30;17.45;;;9.75;;
43744;SDS011;29359;53.048;8.732;2023-12-04T08:41:32;17.67;;;9.73;;
43744;SDS011;29359;53.048;8.732;2023-12-04T08:43:34;17.20;;;9.43;;
43744;SDS011;29359;53.048;8.732;2023-12-04T08:45:35;15.40;;;9.85;;
43744;SDS011;29359;53.048;8.732;2023-12-04T08:47:37;16.15;;;9.95;;
43744;SDS011;29359;53.048;8.732;2023-12-04T08:49:40;14.93;;;9.65;;
43744;SDS011;29359;53.048;8.732;2023-12-04T08:51:51;20.35;;;10.18;;
43744;SDS011;29359;53.048;8.732;2023-12-04T08:53:54;17.48;;;10.32;;
43744;SDS011;29359;53.048;8.732;2023-12-04T08:55:55;14.35;;;9.68;;
43744;SDS011;29359;53.048;8.732;2023-12-04T08:57:58;19.63;;;10.63;;
43744;SDS011;29359;53.048;8.732;2023-12-04T09:00:00;18.23;;;10.30;;
43744;SDS011;29359;53.048;8.732;2023-12-04T09:02:02;16.48;;;10.00;;
43744;SDS011;29359;53.048;8.732;2023-12-04T09:04:07;15.70;;;9.68;;
43744;SDS011;29359;53.048;8.732;2023-12-04T09:06:10;13.55;;;9.30;;
43744;SDS011;29359;53.048;8.732;2023-12-04T09:08:12;14.65;;;8.98;;
43744;SDS011;29359;53.048;8.732;2023-12-04T09:10:34;17.10;;;9.57;;
43744;SDS011;29359;53.048;8.732;2023-12-04T09:12:55;14.68;;;8.65;;
43744;SDS011;29359;53.048;8.732;2023-12-04T09:14:57;14.50;;;8.70;;
43744;SDS011;29359;53.048;8.732;2023-12-04T09:16:59;20.25;;;9.25;;
43744;SDS011;29359;53.048;8.732;2023-12-04T09:19:01;12.02;;;7.90;;
43744;SDS011;29359;53.048;8.732;2023-12-04T09:21:03;16.23;;;9.35;;
43744;SDS011;29359;53.048;8.732;2023-12-04T09:23:05;14.02;;;8.70;;
43744;SDS011;29359;53.048;8.732;2023-12-04T09:25:09;13.23;;;8.70;;
43744;SDS011;29359;53.048;8.732;2023-12-04T09:27:11;18.50;;;8.63;;
43744;SDS011;29359;53.048;8.732;2023-12-04T09:29:13;14.77;;;9.40;;
43744;SDS011;29359;53.048;8.732;2023-12-04T09:31:15;13.48;;;8.45;;
43744;SDS011;29359;53.048;8.732;2023-12-04T09:33:17;12.07;;;8.43;;
43744;SDS011;29359;53.048;8.732;2023-12-04T09:35:18;14.68;;;9.32;;
43744;SDS011;29359;53.048;8.732;2023-12-04T09:37:20;14.02;;;8.43;;
43744;SDS011;29359;53.048;8.732;2023-12-04T09:39:22;13.57;;;9.18;;
43744;SDS011;29359;53.048;8.732;2023-12-04T09:41:24;14.02;;;9.25;;
43744;SDS011;29359;53.048;8.732;2023-12-04T09:43:26;15.63;;;8.70;;
43744;SDS011;29359;53.048;8.732;2023-12-04T09:45:31;14.48;;;9.18;;
43744;SDS011;29359;53.048;8.732;2023-12-04T09:47:34;23.45;;;12.57;;
43744;SDS011;29359;53.048;8.732;2023-12-04T09:49:36;13.10;;;9.02;;
43744;SDS011;29359;53.048;8.732;2023-12-04T09:51:39;13.13;;;8.40;;
43744;SDS011;29359;53.048;8.732;2023-12-04T09:53:41;15.10;;;9.70;;
43744;SDS011;29359;53.048;8.732;2023-12-04T09:55:43;14.90;;;8.88;;
43744;SDS011;29359;53.048;8.732;2023-12-04T09:57:48;14.27;;;8.82;;
43744;SDS011;29359;53.048;8.732;2023-12-04T09:59:50;14.20;;;8.85;;
43744;SDS011;29359;53.048;8.732;2023-12-04T10:01:52;14.85;;;9.80;;
43744;SDS011;29359;53.048;8.732;2023-12-04T10:03:54;14.38;;;8.43;;
43744;SDS011;29359;53.048;8.732;2023-12-04T10:05:58;14.57;;;9.30;;
43744;SDS011;29359;53.048;8.732;2023-12-04T10:08:00;24.60;;;11.52;;
43744;SDS011;29359;53.048;8.732;2023-12-04T10:10:03;13.25;;;8.68;;
43744;SDS011;29359;53.048;8.732;2023-12-04T10:12:09;15.48;;;9.40;;
43744;SDS011;29359;53.048;8.732;2023-12-04T10:14:14;14.85;;;8.93;;
43744;SDS011;29359;53.048;8.732;2023-12-04T10:16:34;14.73;;;8.65;;
43744;SDS011;29359;53.048;8.732;2023-12-04T10:18:38;13.90;;;8.95;;
43744;SDS011;29359;53.048;8.732;2023-12-04T10:20:51;13.30;;;9.07;;
43744;SDS011;29359;53.048;8.732;2023-12-04T10:22:55;13.13;;;8.85;;
43744;SDS011;29359;53.048;8.732;2023-12-04T10:24:57;13.55;;;8.55;;
43744;SDS011;29359;53.048;8.732;2023-12-04T10:27:00;13.32;;;8.55;;
43744;SDS011;29359;53.048;8.732;2023-12-04T10:29:03;12.55;;;8.23;;
43744;SDS011;29359;53.048;8.732;2023-12-04T10:31:06;13.80;;;8.20;;
43744;SDS011;29359;53.048;8.732;2023-12-04T10:33:08;18.02;;;10.95;;
43744;SDS011;29359;53.048;8.732;2023-12-04T10:35:11;18.05;;;10.65;;
43744;SDS011;29359;53.048;8.732;2023-12-04T10:37:15;13.48;;;9.05;;
43744;SDS011;29359;53.048;8.732;2023-12-04T10:39:16;11.65;;;7.85;;
43744;SDS011;29359;53.048;8.732;2023-12-04T10:41:19;13.55;;;8.75;;
43744;SDS011;29359;53.048;8.732;2023-12-04T10:43:24;13.35;;;8.70;;
43744;SDS011;29359;53.048;8.732;2023-12-04T10:45:26;12.68;;;8.30;;
43744;SDS011;29359;53.048;8.732;2023-12-04T10:47:28;12.13;;;8.60;;
43744;SDS011;29359;53.048;8.732;2023-12-04T10:49:34;12.45;;;8.02;;
43744;SDS011;29359;53.048;8.732;2023-12-04T10:51:37;12.18;;;8.32;;
43744;SDS011;29359;53.048;8.732;2023-12-04T10:53:39;11.13;;;7.88;;
43744;SDS011;29359;53.048;8.732;2023-12-04T10:55:44;15.65;;;8.73;;
43744;SDS011;29359;53.048;8.732;2023-12-04T10:57:47;12.10;;;7.82;;
43744;SDS011;29359;53.048;8.732;2023-12-04T10:59:57;13.43;;;7.93;;
43744;SDS011;29359;53.048;8.732;2023-12-04T11:02:04;13.88;;;8.88;;
43744;SDS011;29359;53.048;8.732;2023-12-04T11:04:07;13.00;;;8.55;;
43744;SDS011;29359;53.048;8.732;2023-12-04T11:06:15;13.75;;;7.97;;
43744;SDS011;29359;53.048;8.732;2023-12-04T11:08:19;10.38;;;7.70;;
43744;SDS011;29359;53.048;8.732;2023-12-04T11:10:23;11.52;;;7.28;;
43744;SDS011;29359;53.048;8.732;2023-12-04T11:12:26;12.07;;;7.95;;
43744;SDS011;29359;53.048;8.732;2023-12-04T11:14:34;31.65;;;17.85;;
43744;SDS011;29359;53.048;8.732;2023-12-04T11:16:51;12.35;;;8.63;;
43744;SDS011;29359;53.048;8.732;2023-12-04T11:19:00;12.48;;;7.55;;
43744;SDS011;29359;53.048;8.732;2023-12-04T11:21:07;12.20;;;8.23;;
43744;SDS011;29359;53.048;8.732;2023-12-04T11:23:10;14.88;;;8.25;;
43744;SDS011;29359;53.048;8.732;2023-12-04T11:25:14;10.95;;;7.55;;
43744;SDS011;29359;53.048;8.732;2023-12-04T11:27:17;12.43;;;8.07;;
43744;SDS011;29359;53.048;8.732;2023-12-04T11:29:19;12.95;;;8.18;;
43744;SDS011;29359;53.048;8.732;2023-12-04T11:31:22;11.68;;;8.10;;
43744;SDS011;29359;53.048;8.732;2023-12-04T11:33:25;9.00;;;7.40;;
43744;SDS011;29359;53.048;8.732;2023-12-04T11:35:27;14.75;;;7.53;;
43744;SDS011;29359;53.048;8.732;2023-12-04T11:37:29;10.75;;;8.02;;
43744;SDS011;29359;53.048;8.732;2023-12-04T11:39:33;14.68;;;8.32;;
43744;SDS011;29359;53.048;8.732;2023-12-04T11:41:35;12.52;;;8.75;;
43744;SDS011;29359;53.048;8.732;2023-12-04T11:43:37;13.10;;;8.63;;
43744;SDS011;29359;53.048;8.732;2023-12-04T11:45:43;11.60;;;7.75;;
43744;SDS011;29359;53.048;8.732;2023-12-04T11:49:50;9.73;;;7.65;;
43744;SDS011;29359;53.048;8.732;2023-12-04T11:51:52;10.63;;;7.40;;
43744;SDS011;29359;53.048;8.732;2023-12-04T11:53:54;12.57;;;7.97;;
43744;SDS011;29359;53.048;8.732;2023-12-04T11:55:56;13.35;;;8.25;;
43744;SDS011;29359;53.048;8.732;2023-12-04T11:58:01;10.18;;;7.25;;
43744;SDS011;29359;53.048;8.732;2023-12-04T12:02:24;11.35;;;7.95;;
43744;SDS011;29359;53.048;8.732;2023-12-04T12:04:28;12.05;;;7.80;;